sensor_id;sensor_type;location;lat;lon;timestamp;temperature;humidity
14210;DHT22;7188;56.070;12.698;2023-04-28T00:02:06;5.20;99.90
14210;DHT22;7188;56.070;12.698;2023-04-28T00:04:31;5.20;99.90
14210;DHT22;7188;56.070;12.698;2023-04-28T00:06:57;5.20;99.90
14210;DHT22;7188;56.070;12.698;2023-04-28T00:09:23;5.20;1.00
14210;DHT22;7188;56.070;12.698;2023-04-28T00:11:48;5.20;1.00
14210;DHT22;7188;56.070;12.698;2023-04-28T00:14:14;5.20;1.00
14210;DHT22;7188;56.070;12.698;2023-04-28T00:16:40;5.30;1.00
14210;DHT22;7188;56.070;12.698;2023-04-28T00:19:05;5.20;1.00
14210;DHT22;7188;56.070;12.698;2023-04-28T00:21:32;5.30;1.00
14210;DHT22;7188;56.070;12.698;2023-04-28T00:23:57;5.30;1.00
14210;DHT22;7188;56.070;12.698;2023-04-28T00:26:23;5.20;1.00
14210;DHT22;7188;56.070;12.698;2023-04-28T00:28:49;5.10;1.00
14210;DHT22;7188;56.070;12.698;2023-04-28T00:31:15;5.10;1.00
14210;DHT22;7188;56.070;12.698;2023-04-28T00:33:41;5.00;1.00
14210;DHT22;7188;56.070;12.698;2023-04-28T00:36:08;5.00;1.00
14210;DHT22;7188;56.070;12.698;2023-04-28T00:38:34;5.00;1.00
14210;DHT22;7188;56.070;12.698;2023-04-28T00:41:00;5.00;1.00
14210;DHT22;7188;56.070;12.698;2023-04-28T00:43:26;4.90;1.00
14210;DHT22;7188;56.070;12.698;2023-04-28T00:45:51;4.90;1.00
14210;DHT22;7188;56.070;12.698;2023-04-28T00:48:18;4.90;1.00
14210;DHT22;7188;56.070;12.698;2023-04-28T00:50:44;4.90;24.90
14210;DHT22;7188;56.070;12.698;2023-04-28T00:53:11;4.80;1.00
14210;DHT22;7188;56.070;12.698;2023-04-28T00:55:37;4.80;34.30
14210;DHT22;7188;56.070;12.698;2023-04-28T00:58:07;4.90;99.90
14210;DHT22;7188;56.070;12.698;2023-04-28T01:00:33;4.80;99.90
14210;DHT22;7188;56.070;12.698;2023-04-28T01:02:59;4.90;99.90
14210;DHT22;7188;56.070;12.698;2023-04-28T01:05:25;5.00;99.90
14210;DHT22;7188;56.070;12.698;2023-04-28T01:07:51;4.90;99.90
14210;DHT22;7188;56.070;12.698;2023-04-28T01:10:17;5.10;99.90
14210;DHT22;7188;56.070;12.698;2023-04-28T01:12:43;4.90;99.90
14210;DHT22;7188;56.070;12.698;2023-04-28T01:15:17;4.90;99.90
14210;DHT22;7188;56.070;12.698;2023-04-28T01:17:43;4.80;99.90
14210;DHT22;7188;56.070;12.698;2023-04-28T01:20:09;4.80;99.90
14210;DHT22;7188;56.070;12.698;2023-04-28T01:22:35;4.70;99.90
14210;DHT22;7188;56.070;12.698;2023-04-28T01:25:01;4.60;99.90
14210;DHT22;7188;56.070;12.698;2023-04-28T01:27:28;4.50;99.90
14210;DHT22;7188;56.070;12.698;2023-04-28T01:29:54;4.50;1.00
14210;DHT22;7188;56.070;12.698;2023-04-28T01:32:19;4.50;1.00
14210;DHT22;7188;56.070;12.698;2023-04-28T01:34:45;4.50;1.00
14210;DHT22;7188;56.070;12.698;2023-04-28T01:37:11;4.50;1.00
14210;DHT22;7188;56.070;12.698;2023-04-28T01:39:37;4.60;99.80
14210;DHT22;7188;56.070;12.698;2023-04-28T01:42:03;4.50;99.90
14210;DHT22;7188;56.070;12.698;2023-04-28T01:44:29;4.60;99.90
14210;DHT22;7188;56.070;12.698;2023-04-28T01:46:54;4.60;99.90
14210;DHT22;7188;56.070;12.698;2023-04-28T01:49:20;4.70;99.90
14210;DHT22;7188;56.070;12.698;2023-04-28T01:51:46;4.70;1.00
14210;DHT22;7188;56.070;12.698;2023-04-28T01:54:11;4.50;1.00
14210;DHT22;7188;56.070;12.698;2023-04-28T01:56:37;4.40;1.00
14210;DHT22;7188;56.070;12.698;2023-04-28T01:59:03;4.60;99.90
14210;DHT22;7188;56.070;12.698;2023-04-28T02:01:28;4.60;99.90
14210;DHT22;7188;56.070;12.698;2023-04-28T02:03:54;4.50;35.60
14210;DHT22;7188;56.070;12.698;2023-04-28T02:06:20;4.20;1.00
14210;DHT22;7188;56.070;12.698;2023-04-28T02:08:46;3.90;1.00
14210;DHT22;7188;56.070;12.698;2023-04-28T02:11:12;3.60;1.00
14210;DHT22;7188;56.070;12.698;2023-04-28T02:13:37;3.40;1.00
14210;DHT22;7188;56.070;12.698;2023-04-28T02:16:03;3.40;99.90
14210;DHT22;7188;56.070;12.698;2023-04-28T02:18:29;3.40;99.90
14210;DHT22;7188;56.070;12.698;2023-04-28T02:20:55;3.60;1.00
14210;DHT22;7188;56.070;12.698;2023-04-28T02:23:20;3.60;1.00
14210;DHT22;7188;56.070;12.698;2023-04-28T02:25:46;3.40;1.00
14210;DHT22;7188;56.070;12.698;2023-04-28T02:28:12;3.30;1.00
14210;DHT22;7188;56.070;12.698;2023-04-28T02:30:37;3.30;1.00
14210;DHT22;7188;56.070;12.698;2023-04-28T02:33:03;3.40;99.90
14210;DHT22;7188;56.070;12.698;2023-04-28T02:35:29;3.30;99.90
14210;DHT22;7188;56.070;12.698;2023-04-28T02:37:54;3.40;90.60
14210;DHT22;7188;56.070;12.698;2023-04-28T02:40:23;3.10;1.00
14210;DHT22;7188;56.070;12.698;2023-04-28T02:42:48;3.10;99.90
14210;DHT22;7188;56.070;12.698;2023-04-28T02:45:14;3.00;99.90
14210;DHT22;7188;56.070;12.698;2023-04-28T02:47:40;3.10;99.90
14210;DHT22;7188;56.070;12.698;2023-04-28T02:50:06;2.90;99.90
14210;DHT22;7188;56.070;12.698;2023-04-28T02:52:32;2.90;1.00
14210;DHT22;7188;56.070;12.698;2023-04-28T02:54:57;3.10;1.00
14210;DHT22;7188;56.070;12.698;2023-04-28T02:57:23;3.00;1.00
14210;DHT22;7188;56.070;12.698;2023-04-28T02:59:49;2.80;1.00
14210;DHT22;7188;56.070;12.698;2023-04-28T03:02:15;2.70;1.00
14210;DHT22;7188;56.070;12.698;2023-04-28T03:04:40;2.60;1.00
14210;DHT22;7188;56.070;12.698;2023-04-28T03:07:06;2.60;1.00
14210;DHT22;7188;56.070;12.698;2023-04-28T03:09:32;2.50;36.00
14210;DHT22;7188;56.070;12.698;2023-04-28T03:11:58;2.80;1.00
14210;DHT22;7188;56.070;12.698;2023-04-28T03:14:23;2.70;99.90
14210;DHT22;7188;56.070;12.698;2023-04-28T03:16:49;2.50;99.90
14210;DHT22;7188;56.070;12.698;2023-04-28T03:19:15;2.60;1.00
14210;DHT22;7188;56.070;12.698;2023-04-28T03:21:41;2.60;1.00
14210;DHT22;7188;56.070;12.698;2023-04-28T03:24:06;2.90;1.00
14210;DHT22;7188;56.070;12.698;2023-04-28T03:26:32;3.00;99.90
14210;DHT22;7188;56.070;12.698;2023-04-28T03:28:58;3.10;99.90
14210;DHT22;7188;56.070;12.698;2023-04-28T03:31:24;3.20;99.90
14210;DHT22;7188;56.070;12.698;2023-04-28T03:33:50;3.30;1.00
14210;DHT22;7188;56.070;12.698;2023-04-28T03:36:16;3.40;1.00
14210;DHT22;7188;56.070;12.698;2023-04-28T03:38:43;3.60;1.00
14210;DHT22;7188;56.070;12.698;2023-04-28T03:41:08;3.70;1.00
14210;DHT22;7188;56.070;12.698;2023-04-28T03:43:34;3.80;99.90
14210;DHT22;7188;56.070;12.698;2023-04-28T03:46:03;3.50;1.00
14210;DHT22;7188;56.070;12.698;2023-04-28T03:48:28;3.50;1.00
14210;DHT22;7188;56.070;12.698;2023-04-28T03:50:54;3.70;1.00
14210;DHT22;7188;56.070;12.698;2023-04-28T03:53:20;3.90;1.00
14210;DHT22;7188;56.070;12.698;2023-04-28T03:55:45;3.90;19.80
14210;DHT22;7188;56.070;12.698;2023-04-28T03:58:11;3.70;1.00
14210;DHT22;7188;56.070;12.698;2023-04-28T04:00:37;3.80;1.00
14210;DHT22;7188;56.070;12.698;2023-04-28T04:03:02;3.80;99.90
14210;DHT22;7188;56.070;12.698;2023-04-28T04:05:28;4.00;1.00
14210;DHT22;7188;56.070;12.698;2023-04-28T04:07:54;4.30;99.90
14210;DHT22;7188;56.070;12.698;2023-04-28T04:10:19;4.40;1.00
14210;DHT22;7188;56.070;12.698;2023-04-28T04:12:45;4.50;1.00
14210;DHT22;7188;56.070;12.698;2023-04-28T04:15:11;4.50;99.90
14210;DHT22;7188;56.070;12.698;2023-04-28T04:17:36;4.50;99.90
14210;DHT22;7188;56.070;12.698;2023-04-28T04:20:02;4.60;99.90
14210;DHT22;7188;56.070;12.698;2023-04-28T04:22:27;4.70;99.90
14210;DHT22;7188;56.070;12.698;2023-04-28T04:24:53;4.80;30.90
14210;DHT22;7188;56.070;12.698;2023-04-28T04:27:19;5.20;22.90
14210;DHT22;7188;56.070;12.698;2023-04-28T04:29:44;5.40;1.00
14210;DHT22;7188;56.070;12.698;2023-04-28T04:32:10;5.80;99.90
14210;DHT22;7188;56.070;12.698;2023-04-28T04:34:36;5.90;1.00
14210;DHT22;7188;56.070;12.698;2023-04-28T04:37:01;6.10;99.90
14210;DHT22;7188;56.070;12.698;2023-04-28T04:39:27;6.20;99.90
14210;DHT22;7188;56.070;12.698;2023-04-28T04:41:52;6.30;1.00
14210;DHT22;7188;56.070;12.698;2023-04-28T04:44:18;6.30;1.00
14210;DHT22;7188;56.070;12.698;2023-04-28T04:46:45;6.30;1.00
14210;DHT22;7188;56.070;12.698;2023-04-28T04:49:10;6.50;1.00
14210;DHT22;7188;56.070;12.698;2023-04-28T04:51:36;6.60;1.00
14210;DHT22;7188;56.070;12.698;2023-04-28T04:54:02;6.70;99.90
14210;DHT22;7188;56.070;12.698;2023-04-28T04:56:27;7.00;99.90
14210;DHT22;7188;56.070;12.698;2023-04-28T04:58:53;7.20;99.90
14210;DHT22;7188;56.070;12.698;2023-04-28T05:01:18;7.20;99.90
14210;DHT22;7188;56.070;12.698;2023-04-28T05:03:44;7.20;3.60
14210;DHT22;7188;56.070;12.698;2023-04-28T05:06:10;7.20;6.30
14210;DHT22;7188;56.070;12.698;2023-04-28T05:08:35;7.20;1.00
14210;DHT22;7188;56.070;12.698;2023-04-28T05:11:01;7.20;1.00
14210;DHT22;7188;56.070;12.698;2023-04-28T05:13:27;7.20;1.00
14210;DHT22;7188;56.070;12.698;2023-04-28T05:15:53;7.20;1.00
14210;DHT22;7188;56.070;12.698;2023-04-28T05:18:18;7.30;1.00
14210;DHT22;7188;56.070;12.698;2023-04-28T05:20:44;7.50;1.00
14210;DHT22;7188;56.070;12.698;2023-04-28T05:23:10;7.60;1.00
14210;DHT22;7188;56.070;12.698;2023-04-28T05:25:35;7.70;1.00
14210;DHT22;7188;56.070;12.698;2023-04-28T05:28:01;7.90;1.00
14210;DHT22;7188;56.070;12.698;2023-04-28T05:30:32;8.00;1.00
14210;DHT22;7188;56.070;12.698;2023-04-28T05:32:57;7.90;1.00
14210;DHT22;7188;56.070;12.698;2023-04-28T05:35:23;8.00;1.00
14210;DHT22;7188;56.070;12.698;2023-04-28T05:37:49;8.00;1.00
14210;DHT22;7188;56.070;12.698;2023-04-28T05:40:14;8.00;1.00
14210;DHT22;7188;56.070;12.698;2023-04-28T05:42:40;7.90;1.00
14210;DHT22;7188;56.070;12.698;2023-04-28T05:45:06;7.90;1.00
14210;DHT22;7188;56.070;12.698;2023-04-28T05:47:32;8.10;1.00
14210;DHT22;7188;56.070;12.698;2023-04-28T05:49:58;8.20;1.00
14210;DHT22;7188;56.070;12.698;2023-04-28T05:52:23;8.30;99.90
14210;DHT22;7188;56.070;12.698;2023-04-28T05:54:49;8.30;99.90
14210;DHT22;7188;56.070;12.698;2023-04-28T05:57:14;8.50;99.90
14210;DHT22;7188;56.070;12.698;2023-04-28T05:59:40;8.50;99.90
14210;DHT22;7188;56.070;12.698;2023-04-28T06:02:06;8.50;99.90
14210;DHT22;7188;56.070;12.698;2023-04-28T06:04:32;8.40;99.90
14210;DHT22;7188;56.070;12.698;2023-04-28T06:06:57;8.40;99.90
14210;DHT22;7188;56.070;12.698;2023-04-28T06:09:23;8.50;99.90
14210;DHT22;7188;56.070;12.698;2023-04-28T06:11:49;8.60;99.90
14210;DHT22;7188;56.070;12.698;2023-04-28T06:14:15;8.70;99.90
14210;DHT22;7188;56.070;12.698;2023-04-28T06:16:41;8.80;99.90
14210;DHT22;7188;56.070;12.698;2023-04-28T06:19:06;8.80;99.90
14210;DHT22;7188;56.070;12.698;2023-04-28T06:21:32;8.80;99.90
14210;DHT22;7188;56.070;12.698;2023-04-28T06:23:58;8.80;99.90
14210;DHT22;7188;56.070;12.698;2023-04-28T06:26:23;8.80;77.70
14210;DHT22;7188;56.070;12.698;2023-04-28T06:28:49;8.60;77.80
14210;DHT22;7188;56.070;12.698;2023-04-28T06:31:15;8.80;99.90
14210;DHT22;7188;56.070;12.698;2023-04-28T06:33:41;8.90;91.70
14210;DHT22;7188;56.070;12.698;2023-04-28T06:36:07;8.90;11.80
14210;DHT22;7188;56.070;12.698;2023-04-28T06:38:33;8.90;6.70
14210;DHT22;7188;56.070;12.698;2023-04-28T06:40:58;8.90;18.30
14210;DHT22;7188;56.070;12.698;2023-04-28T06:43:24;8.90;1.00
14210;DHT22;7188;56.070;12.698;2023-04-28T06:45:49;8.90;11.10
14210;DHT22;7188;56.070;12.698;2023-04-28T06:48:16;9.10;14.30
14210;DHT22;7188;56.070;12.698;2023-04-28T06:50:42;9.00;1.00
14210;DHT22;7188;56.070;12.698;2023-04-28T06:53:08;8.90;1.00
14210;DHT22;7188;56.070;12.698;2023-04-28T06:55:34;8.90;1.00
14210;DHT22;7188;56.070;12.698;2023-04-28T06:58:00;9.00;1.00
14210;DHT22;7188;56.070;12.698;2023-04-28T07:00:25;9.10;1.00
14210;DHT22;7188;56.070;12.698;2023-04-28T07:02:51;9.20;1.00
14210;DHT22;7188;56.070;12.698;2023-04-28T07:05:17;9.40;1.00
14210;DHT22;7188;56.070;12.698;2023-04-28T07:07:42;9.30;1.00
14210;DHT22;7188;56.070;12.698;2023-04-28T07:10:08;9.30;1.00
14210;DHT22;7188;56.070;12.698;2023-04-28T07:12:35;9.40;1.00
14210;DHT22;7188;56.070;12.698;2023-04-28T07:15:01;9.60;1.00
14210;DHT22;7188;56.070;12.698;2023-04-28T07:17:27;9.50;1.00
14210;DHT22;7188;56.070;12.698;2023-04-28T07:19:52;9.50;1.00
14210;DHT22;7188;56.070;12.698;2023-04-28T07:22:18;9.50;1.00
14210;DHT22;7188;56.070;12.698;2023-04-28T07:24:43;9.80;1.00
14210;DHT22;7188;56.070;12.698;2023-04-28T07:27:09;9.70;1.00
14210;DHT22;7188;56.070;12.698;2023-04-28T07:29:35;9.60;1.00
14210;DHT22;7188;56.070;12.698;2023-04-28T07:32:02;9.50;1.00
14210;DHT22;7188;56.070;12.698;2023-04-28T07:34:33;9.50;1.00
14210;DHT22;7188;56.070;12.698;2023-04-28T07:37:00;9.50;1.00
14210;DHT22;7188;56.070;12.698;2023-04-28T07:39:26;9.50;1.00
14210;DHT22;7188;56.070;12.698;2023-04-28T07:41:52;9.60;1.00
14210;DHT22;7188;56.070;12.698;2023-04-28T07:44:17;9.70;1.00
14210;DHT22;7188;56.070;12.698;2023-04-28T07:46:43;9.90;1.00
14210;DHT22;7188;56.070;12.698;2023-04-28T07:49:08;10.00;1.00
14210;DHT22;7188;56.070;12.698;2023-04-28T07:51:34;10.30;1.00
14210;DHT22;7188;56.070;12.698;2023-04-28T07:54:00;10.40;1.00
14210;DHT22;7188;56.070;12.698;2023-04-28T07:56:25;10.40;1.00
14210;DHT22;7188;56.070;12.698;2023-04-28T07:58:52;10.30;1.00
14210;DHT22;7188;56.070;12.698;2023-04-28T08:01:17;10.30;1.00
14210;DHT22;7188;56.070;12.698;2023-04-28T08:03:43;10.20;1.00
14210;DHT22;7188;56.070;12.698;2023-04-28T08:06:09;10.20;1.00
14210;DHT22;7188;56.070;12.698;2023-04-28T08:08:35;10.30;1.00
14210;DHT22;7188;56.070;12.698;2023-04-28T08:11:00;10.20;1.00
14210;DHT22;7188;56.070;12.698;2023-04-28T08:13:26;10.10;1.00
14210;DHT22;7188;56.070;12.698;2023-04-28T08:15:53;10.00;1.00
14210;DHT22;7188;56.070;12.698;2023-04-28T08:18:21;10.00;1.00
14210;DHT22;7188;56.070;12.698;2023-04-28T08:20:47;9.90;1.00
14210;DHT22;7188;56.070;12.698;2023-04-28T08:23:12;9.90;1.00
14210;DHT22;7188;56.070;12.698;2023-04-28T08:25:38;9.90;1.00
14210;DHT22;7188;56.070;12.698;2023-04-28T08:28:04;10.10;1.00
14210;DHT22;7188;56.070;12.698;2023-04-28T08:30:31;10.20;1.00
14210;DHT22;7188;56.070;12.698;2023-04-28T08:32:56;10.30;1.00
14210;DHT22;7188;56.070;12.698;2023-04-28T08:35:22;10.40;1.00
14210;DHT22;7188;56.070;12.698;2023-04-28T08:37:48;10.50;1.00
14210;DHT22;7188;56.070;12.698;2023-04-28T08:40:14;10.70;1.00
14210;DHT22;7188;56.070;12.698;2023-04-28T08:42:40;10.80;1.00
14210;DHT22;7188;56.070;12.698;2023-04-28T08:45:07;10.90;1.00
14210;DHT22;7188;56.070;12.698;2023-04-28T08:47:34;11.00;1.00
14210;DHT22;7188;56.070;12.698;2023-04-28T08:50:04;11.00;1.00
14210;DHT22;7188;56.070;12.698;2023-04-28T08:52:31;11.10;1.00
14210;DHT22;7188;56.070;12.698;2023-04-28T08:55:02;11.30;1.00
14210;DHT22;7188;56.070;12.698;2023-04-28T08:57:42;11.40;1.00
14210;DHT22;7188;56.070;12.698;2023-04-28T09:00:08;11.50;1.00
14210;DHT22;7188;56.070;12.698;2023-04-28T09:02:34;11.30;1.00
14210;DHT22;7188;56.070;12.698;2023-04-28T09:05:08;11.30;1.00
14210;DHT22;7188;56.070;12.698;2023-04-28T09:07:34;11.40;1.00
14210;DHT22;7188;56.070;12.698;2023-04-28T09:10:18;11.50;1.00
14210;DHT22;7188;56.070;12.698;2023-04-28T09:12:44;11.60;1.00
14210;DHT22;7188;56.070;12.698;2023-04-28T09:15:10;11.50;1.00
14210;DHT22;7188;56.070;12.698;2023-04-28T09:17:48;11.60;1.00
14210;DHT22;7188;56.070;12.698;2023-04-28T09:20:25;11.70;1.00
14210;DHT22;7188;56.070;12.698;2023-04-28T09:22:52;11.60;1.00
14210;DHT22;7188;56.070;12.698;2023-04-28T09:25:19;11.40;1.00
14210;DHT22;7188;56.070;12.698;2023-04-28T09:27:51;11.40;1.00
14210;DHT22;7188;56.070;12.698;2023-04-28T09:30:17;11.50;1.00
14210;DHT22;7188;56.070;12.698;2023-04-28T09:32:43;11.50;1.00
14210;DHT22;7188;56.070;12.698;2023-04-28T09:35:09;11.60;1.00
14210;DHT22;7188;56.070;12.698;2023-04-28T09:37:35;11.60;1.00
14210;DHT22;7188;56.070;12.698;2023-04-28T09:40:07;11.70;1.00
14210;DHT22;7188;56.070;12.698;2023-04-28T09:42:39;11.70;1.00
14210;DHT22;7188;56.070;12.698;2023-04-28T09:45:13;11.80;1.00
14210;DHT22;7188;56.070;12.698;2023-04-28T09:47:45;11.90;1.00
14210;DHT22;7188;56.070;12.698;2023-04-28T09:50:13;11.80;1.00
14210;DHT22;7188;56.070;12.698;2023-04-28T09:52:43;11.80;1.00
14210;DHT22;7188;56.070;12.698;2023-04-28T09:55:11;11.90;1.00
14210;DHT22;7188;56.070;12.698;2023-04-28T09:57:38;11.90;1.00
14210;DHT22;7188;56.070;12.698;2023-04-28T10:00:06;11.90;1.00
14210;DHT22;7188;56.070;12.698;2023-04-28T10:02:34;11.90;1.00
14210;DHT22;7188;56.070;12.698;2023-04-28T10:05:01;11.80;1.00
14210;DHT22;7188;56.070;12.698;2023-04-28T10:07:28;12.00;1.00
14210;DHT22;7188;56.070;12.698;2023-04-28T10:09:55;12.20;1.00
14210;DHT22;7188;56.070;12.698;2023-04-28T10:12:23;12.40;1.00
14210;DHT22;7188;56.070;12.698;2023-04-28T10:14:50;12.50;1.00
14210;DHT22;7188;56.070;12.698;2023-04-28T10:17:19;12.40;1.00
14210;DHT22;7188;56.070;12.698;2023-04-28T10:19:48;12.60;1.00
14210;DHT22;7188;56.070;12.698;2023-04-28T10:25:24;12.60;1.00
14210;DHT22;7188;56.070;12.698;2023-04-28T10:27:50;12.70;1.00
14210;DHT22;7188;56.070;12.698;2023-04-28T10:30:24;12.80;1.00
14210;DHT22;7188;56.070;12.698;2023-04-28T10:33:22;12.90;1.00
14210;DHT22;7188;56.070;12.698;2023-04-28T10:35:49;12.90;1.00
14210;DHT22;7188;56.070;12.698;2023-04-28T10:38:18;13.00;1.00
14210;DHT22;7188;56.070;12.698;2023-04-28T10:40:47;13.00;1.00
14210;DHT22;7188;56.070;12.698;2023-04-28T10:48:22;12.90;1.00
14210;DHT22;7188;56.070;12.698;2023-04-28T10:56:21;13.20;1.00
14210;DHT22;7188;56.070;12.698;2023-04-28T10:58:49;13.30;1.00
14210;DHT22;7188;56.070;12.698;2023-04-28T11:06:27;13.50;1.00
14210;DHT22;7188;56.070;12.698;2023-04-28T11:08:55;13.50;1.00
14210;DHT22;7188;56.070;12.698;2023-04-28T11:11:26;13.20;1.00
14210;DHT22;7188;56.070;12.698;2023-04-28T11:14:30;13.40;1.00
14210;DHT22;7188;56.070;12.698;2023-04-28T11:16:58;13.60;1.00
14210;DHT22;7188;56.070;12.698;2023-04-28T11:20:01;13.50;1.00
14210;DHT22;7188;56.070;12.698;2023-04-28T11:22:21;13.70;1.00
14210;DHT22;7188;56.070;12.698;2023-04-28T11:24:59;13.70;1.00
14210;DHT22;7188;56.070;12.698;2023-04-28T11:27:26;13.90;1.00
14210;DHT22;7188;56.070;12.698;2023-04-28T11:29:52;14.00;1.00
14210;DHT22;7188;56.070;12.698;2023-04-28T11:32:26;13.80;1.00
14210;DHT22;7188;56.070;12.698;2023-04-28T11:34:52;13.80;1.00
14210;DHT22;7188;56.070;12.698;2023-04-28T11:37:18;13.70;1.00
14210;DHT22;7188;56.070;12.698;2023-04-28T11:39:45;13.60;1.00
14210;DHT22;7188;56.070;12.698;2023-04-28T11:42:11;13.60;1.00
14210;DHT22;7188;56.070;12.698;2023-04-28T11:44:37;13.60;1.00
14210;DHT22;7188;56.070;12.698;2023-04-28T11:47:04;13.60;1.00
14210;DHT22;7188;56.070;12.698;2023-04-28T11:52:07;13.70;1.00
14210;DHT22;7188;56.070;12.698;2023-04-28T11:54:33;13.70;1.00
14210;DHT22;7188;56.070;12.698;2023-04-28T11:56:59;13.60;99.90
14210;DHT22;7188;56.070;12.698;2023-04-28T11:59:27;13.50;1.00
14210;DHT22;7188;56.070;12.698;2023-04-28T12:01:57;13.40;99.90
14210;DHT22;7188;56.070;12.698;2023-04-28T12:07:14;13.70;1.00
14210;DHT22;7188;56.070;12.698;2023-04-28T12:09:41;13.90;99.90
14210;DHT22;7188;56.070;12.698;2023-04-28T12:12:09;13.60;99.90
14210;DHT22;7188;56.070;12.698;2023-04-28T12:14:58;13.70;99.90
14210;DHT22;7188;56.070;12.698;2023-04-28T12:17:30;13.60;99.90
14210;DHT22;7188;56.070;12.698;2023-04-28T12:20:02;13.50;99.90
14210;DHT22;7188;56.070;12.698;2023-04-28T12:22:28;13.60;99.90
14210;DHT22;7188;56.070;12.698;2023-04-28T12:25:03;13.30;99.90
14210;DHT22;7188;56.070;12.698;2023-04-28T12:27:29;13.50;99.90
14210;DHT22;7188;56.070;12.698;2023-04-28T12:29:56;13.70;99.90
14210;DHT22;7188;56.070;12.698;2023-04-28T12:32:42;13.80;99.90
14210;DHT22;7188;56.070;12.698;2023-04-28T12:35:08;13.80;99.90
14210;DHT22;7188;56.070;12.698;2023-04-28T12:37:35;13.90;99.90
14210;DHT22;7188;56.070;12.698;2023-04-28T12:40:03;14.00;99.90
14210;DHT22;7188;56.070;12.698;2023-04-28T12:42:29;13.80;99.90
14210;DHT22;7188;56.070;12.698;2023-04-28T12:44:54;13.70;99.90
14210;DHT22;7188;56.070;12.698;2023-04-28T12:47:20;13.60;99.90
14210;DHT22;7188;56.070;12.698;2023-04-28T12:49:46;13.60;99.90
14210;DHT22;7188;56.070;12.698;2023-04-28T12:52:15;13.50;99.90
14210;DHT22;7188;56.070;12.698;2023-04-28T12:54:40;13.60;99.90
14210;DHT22;7188;56.070;12.698;2023-04-28T12:57:11;13.60;99.90
14210;DHT22;7188;56.070;12.698;2023-04-28T12:59:38;13.60;99.90
14210;DHT22;7188;56.070;12.698;2023-04-28T13:02:03;13.80;99.90
14210;DHT22;7188;56.070;12.698;2023-04-28T13:04:30;13.90;99.90
14210;DHT22;7188;56.070;12.698;2023-04-28T13:06:56;14.10;99.90
14210;DHT22;7188;56.070;12.698;2023-04-28T13:09:23;14.00;99.90
14210;DHT22;7188;56.070;12.698;2023-04-28T13:11:49;14.00;99.90
14210;DHT22;7188;56.070;12.698;2023-04-28T13:14:15;14.10;99.90
14210;DHT22;7188;56.070;12.698;2023-04-28T13:16:41;14.00;99.90
14210;DHT22;7188;56.070;12.698;2023-04-28T13:19:06;13.90;99.90
14210;DHT22;7188;56.070;12.698;2023-04-28T13:21:35;14.20;99.90
14210;DHT22;7188;56.070;12.698;2023-04-28T13:24:02;14.40;99.90
14210;DHT22;7188;56.070;12.698;2023-04-28T13:26:28;14.30;99.90
14210;DHT22;7188;56.070;12.698;2023-04-28T13:28:54;14.40;99.90
14210;DHT22;7188;56.070;12.698;2023-04-28T13:31:20;14.30;99.90
14210;DHT22;7188;56.070;12.698;2023-04-28T13:33:46;14.30;99.90
14210;DHT22;7188;56.070;12.698;2023-04-28T13:36:12;14.40;99.90
14210;DHT22;7188;56.070;12.698;2023-04-28T13:38:37;14.40;99.90
14210;DHT22;7188;56.070;12.698;2023-04-28T13:41:03;14.30;99.90
14210;DHT22;7188;56.070;12.698;2023-04-28T13:43:29;14.30;99.90
14210;DHT22;7188;56.070;12.698;2023-04-28T13:45:58;14.40;99.90
14210;DHT22;7188;56.070;12.698;2023-04-28T13:48:24;14.40;99.90
14210;DHT22;7188;56.070;12.698;2023-04-28T13:50:52;14.30;99.90
14210;DHT22;7188;56.070;12.698;2023-04-28T13:53:17;14.30;99.90
14210;DHT22;7188;56.070;12.698;2023-04-28T13:55:43;14.40;99.90
14210;DHT22;7188;56.070;12.698;2023-04-28T13:58:09;14.40;99.90
14210;DHT22;7188;56.070;12.698;2023-04-28T14:00:35;14.40;99.90
14210;DHT22;7188;56.070;12.698;2023-04-28T14:03:02;14.50;99.90
14210;DHT22;7188;56.070;12.698;2023-04-28T14:05:27;14.50;99.90
14210;DHT22;7188;56.070;12.698;2023-04-28T14:07:54;14.40;99.90
14210;DHT22;7188;56.070;12.698;2023-04-28T14:10:20;14.30;99.90
14210;DHT22;7188;56.070;12.698;2023-04-28T14:12:46;14.20;99.90
14210;DHT22;7188;56.070;12.698;2023-04-28T14:15:12;14.30;99.90
14210;DHT22;7188;56.070;12.698;2023-04-28T14:17:37;14.30;99.90
14210;DHT22;7188;56.070;12.698;2023-04-28T14:20:03;14.30;99.90
14210;DHT22;7188;56.070;12.698;2023-04-28T14:22:29;14.30;99.90
14210;DHT22;7188;56.070;12.698;2023-04-28T14:24:55;14.40;99.90
14210;DHT22;7188;56.070;12.698;2023-04-28T14:27:21;14.20;99.90
14210;DHT22;7188;56.070;12.698;2023-04-28T14:29:47;14.30;99.90
14210;DHT22;7188;56.070;12.698;2023-04-28T14:32:14;14.30;99.90
14210;DHT22;7188;56.070;12.698;2023-04-28T14:34:40;14.20;99.90
14210;DHT22;7188;56.070;12.698;2023-04-28T14:37:06;14.30;99.90
14210;DHT22;7188;56.070;12.698;2023-04-28T14:39:32;14.20;99.90
14210;DHT22;7188;56.070;12.698;2023-04-28T14:41:57;14.20;99.90
14210;DHT22;7188;56.070;12.698;2023-04-28T14:44:23;14.30;99.90
14210;DHT22;7188;56.070;12.698;2023-04-28T14:46:49;14.20;99.90
14210;DHT22;7188;56.070;12.698;2023-04-28T14:49:14;14.20;99.90
14210;DHT22;7188;56.070;12.698;2023-04-28T14:51:40;14.20;99.90
14210;DHT22;7188;56.070;12.698;2023-04-28T14:54:07;14.00;99.90
14210;DHT22;7188;56.070;12.698;2023-04-28T14:56:34;13.80;99.90
14210;DHT22;7188;56.070;12.698;2023-04-28T14:58:59;13.80;99.90
14210;DHT22;7188;56.070;12.698;2023-04-28T15:01:25;13.70;99.90
14210;DHT22;7188;56.070;12.698;2023-04-28T15:03:51;13.60;99.90
14210;DHT22;7188;56.070;12.698;2023-04-28T15:06:16;13.60;99.90
14210;DHT22;7188;56.070;12.698;2023-04-28T15:08:42;13.60;99.90
14210;DHT22;7188;56.070;12.698;2023-04-28T15:11:08;13.50;99.90
14210;DHT22;7188;56.070;12.698;2023-04-28T15:13:34;13.50;99.90
14210;DHT22;7188;56.070;12.698;2023-04-28T15:16:00;13.60;99.90
14210;DHT22;7188;56.070;12.698;2023-04-28T15:18:25;13.40;99.90
14210;DHT22;7188;56.070;12.698;2023-04-28T15:20:52;13.20;99.90
14210;DHT22;7188;56.070;12.698;2023-04-28T15:23:17;13.20;99.90
14210;DHT22;7188;56.070;12.698;2023-04-28T15:25:44;13.00;99.90
14210;DHT22;7188;56.070;12.698;2023-04-28T15:28:10;13.10;99.90
14210;DHT22;7188;56.070;12.698;2023-04-28T15:30:35;13.00;99.90
14210;DHT22;7188;56.070;12.698;2023-04-28T15:33:01;13.00;99.90
14210;DHT22;7188;56.070;12.698;2023-04-28T15:35:27;12.90;99.90
14210;DHT22;7188;56.070;12.698;2023-04-28T15:37:53;12.90;99.90
14210;DHT22;7188;56.070;12.698;2023-04-28T15:40:20;12.90;99.90
14210;DHT22;7188;56.070;12.698;2023-04-28T15:42:46;12.90;99.90
14210;DHT22;7188;56.070;12.698;2023-04-28T15:45:19;13.00;99.90
14210;DHT22;7188;56.070;12.698;2023-04-28T15:47:48;13.00;99.90
14210;DHT22;7188;56.070;12.698;2023-04-28T15:50:14;12.90;99.90
14210;DHT22;7188;56.070;12.698;2023-04-28T15:52:41;12.90;99.90
14210;DHT22;7188;56.070;12.698;2023-04-28T15:55:14;12.80;99.90
14210;DHT22;7188;56.070;12.698;2023-04-28T15:57:41;12.80;99.90
14210;DHT22;7188;56.070;12.698;2023-04-28T16:00:08;12.90;99.90
14210;DHT22;7188;56.070;12.698;2023-04-28T16:02:35;12.60;99.90
14210;DHT22;7188;56.070;12.698;2023-04-28T16:05:01;12.60;99.90
14210;DHT22;7188;56.070;12.698;2023-04-28T16:07:28;12.50;99.90
14210;DHT22;7188;56.070;12.698;2023-04-28T16:10:06;12.50;99.90